createdAt,value
2022-12-18T00:01:28.610Z,64.40
2022-12-18T00:03:56.513Z,74.73
2022-12-18T00:06:24.344Z,71.37
2022-12-18T00:08:51.973Z,62.40
2022-12-18T00:11:21.731Z,79.23
2022-12-18T00:13:48.792Z,64.97
2022-12-18T00:16:22.237Z,62.37
2022-12-18T00:18:50.723Z,61.80
2022-12-18T00:21:18.135Z,63.50
2022-12-18T00:23:46.230Z,79.63
2022-12-18T00:26:16.815Z,67.83
2022-12-18T00:28:44.572Z,75.90
2022-12-18T00:31:14.008Z,72.07
2022-12-18T00:33:41.657Z,64.07
2022-12-18T00:36:12.767Z,67.60
2022-12-18T00:38:40.599Z,70.80
2022-12-18T00:41:10.536Z,64.37
2022-12-18T00:43:39.262Z,59.57
2022-12-18T00:46:06.731Z,57.53
2022-12-18T00:48:34.001Z,55.10
2022-12-18T00:51:00.705Z,69.20
2022-12-18T00:53:27.460Z,60.83
2022-12-18T00:55:54.172Z,66.90
2022-12-18T00:58:20.959Z,59.77
2022-12-18T01:00:47.777Z,62.73
2022-12-18T01:03:15.243Z,57.33
2022-12-18T01:05:42.980Z,54.37
2022-12-18T01:08:10.247Z,55.23
2022-12-18T01:10:37.121Z,58.10
2022-12-18T01:13:03.938Z,45.30
2022-12-18T01:15:30.712Z,51.97
2022-12-18T01:17:57.815Z,50.87
2022-12-18T01:20:24.561Z,53.57
2022-12-18T01:22:51.296Z,47.60
2022-12-18T01:25:18.022Z,64.90
2022-12-18T01:27:44.761Z,56.00
2022-12-18T01:30:11.970Z,54.57
2022-12-18T01:32:38.737Z,49.13
2022-12-18T01:35:06.376Z,57.60
2022-12-18T01:37:33.326Z,54.03
2022-12-18T01:40:00.091Z,52.77
2022-12-18T01:42:26.897Z,49.07
2022-12-18T01:45:02.764Z,52.23
2022-12-18T01:47:53.283Z,49.40
2022-12-18T01:50:25.725Z,54.37
2022-12-18T01:53:00.160Z,55.13
2022-12-18T01:55:30.537Z,59.23
2022-12-18T01:58:00.192Z,49.23
2022-12-18T02:00:28.784Z,63.20
2022-12-18T02:02:55.657Z,51.50
2022-12-18T02:05:41.021Z,55.43
2022-12-18T02:08:39.743Z,52.87
2022-12-18T02:11:11.365Z,59.53
2022-12-18T02:13:41.415Z,58.07
2022-12-18T02:16:19.878Z,56.07
2022-12-18T02:18:51.288Z,50.60
2022-12-18T02:21:36.236Z,53.73
2022-12-18T02:24:15.043Z,42.70
2022-12-18T02:26:54.841Z,48.47
2022-12-18T02:29:30.578Z,40.97
2022-12-18T02:32:00.144Z,41.43
2022-12-18T02:34:32.320Z,38.57
2022-12-18T02:37:01.850Z,37.85
2022-12-18T02:39:31.633Z,38.13
2022-12-18T02:42:00.376Z,42.50
2022-12-18T02:44:27.323Z,34.73
2022-12-18T02:46:55.375Z,43.57
2022-12-18T02:49:30.739Z,39.67
2022-12-18T02:52:29.676Z,42.17
2022-12-18T02:55:02.520Z,49.43
2022-12-18T02:57:36.335Z,42.40
2022-12-18T03:00:11.314Z,54.97
2022-12-18T03:03:00.535Z,40.23
2022-12-18T03:05:57.512Z,41.60
2022-12-18T03:08:28.211Z,48.87
2022-12-18T03:11:04.564Z,50.17
2022-12-18T03:13:52.735Z,47.83
2022-12-18T03:16:26.873Z,45.70
2022-12-18T03:18:58.314Z,47.57
2022-12-18T03:21:32.949Z,46.77
2022-12-18T03:24:00.657Z,49.53
2022-12-18T03:26:28.804Z,46.67
2022-12-18T03:29:10.742Z,45.83
2022-12-18T03:31:40.571Z,45.20
2022-12-18T03:34:14.311Z,39.93
2022-12-18T03:36:41.427Z,41.07
2022-12-18T03:39:08.231Z,36.23
2022-12-18T03:41:39.449Z,39.17
2022-12-18T03:44:22.992Z,38.87
2022-12-18T03:46:55.767Z,41.47
2022-12-18T03:49:48.891Z,40.00
2022-12-18T03:52:24.938Z,45.58
2022-12-18T03:54:54.937Z,36.80
2022-12-18T03:57:25.704Z,40.23
2022-12-18T03:59:57.507Z,43.27
2022-12-18T04:02:25.916Z,38.23
2022-12-18T04:05:01.481Z,34.63
2022-12-18T04:07:28.987Z,42.83
2022-12-18T04:09:59.127Z,40.77
2022-12-18T04:12:29.619Z,38.30
2022-12-18T04:14:56.474Z,41.73
2022-12-18T04:17:23.519Z,40.67
2022-12-18T04:19:50.502Z,40.33
2022-12-18T04:22:17.463Z,41.63
2022-12-18T04:24:44.195Z,45.10
2022-12-18T04:27:10.913Z,45.50
2022-12-18T04:29:37.660Z,38.33
2022-12-18T04:32:04.892Z,41.27
2022-12-18T04:34:31.620Z,40.83
2022-12-18T04:36:58.384Z,41.90
2022-12-18T04:39:25.218Z,39.90
2022-12-18T04:41:52.484Z,39.57
2022-12-18T04:44:19.289Z,39.60
2022-12-18T04:46:46.119Z,40.53
2022-12-18T04:49:13.360Z,43.83
2022-12-18T04:51:40.271Z,35.77
2022-12-18T04:54:07.017Z,37.60
2022-12-18T04:56:33.779Z,47.37
2022-12-18T04:59:00.516Z,50.07
2022-12-18T05:01:34.102Z,43.30
2022-12-18T05:04:02.362Z,36.07
2022-12-18T05:06:29.363Z,38.53
2022-12-18T05:08:56.381Z,36.67
2022-12-18T05:11:23.212Z,42.10
2022-12-18T05:13:50.280Z,37.77
2022-12-18T05:16:17.291Z,35.83
2022-12-18T05:18:44.151Z,39.97
2022-12-18T05:21:10.897Z,42.60
2022-12-18T05:23:38.479Z,44.27
2022-12-18T05:26:06.737Z,41.37
2022-12-18T05:28:35.405Z,41.53
2022-12-18T05:31:05.936Z,39.03
2022-12-18T05:33:35.348Z,38.37
2022-12-18T05:36:03.571Z,40.07
2022-12-18T05:38:32.815Z,40.77
2022-12-18T05:40:59.593Z,39.60
2022-12-18T05:43:27.522Z,35.57
2022-12-18T05:45:54.996Z,39.33
2022-12-18T05:48:22.510Z,35.67
2022-12-18T05:50:51.102Z,37.90
2022-12-18T05:53:20.546Z,32.47
2022-12-18T05:55:48.044Z,34.73
2022-12-18T05:58:15.806Z,35.37
2022-12-18T06:00:45.001Z,35.77
2022-12-18T06:03:13.418Z,35.77
2022-12-18T06:05:45.391Z,31.23
2022-12-18T06:08:13.637Z,31.53
2022-12-18T06:10:41.267Z,29.27
2022-12-18T06:13:08.580Z,28.43
2022-12-18T06:15:38.185Z,29.20
2022-12-18T06:18:05.114Z,31.63
2022-12-18T06:20:33.623Z,30.80
2022-12-18T06:23:01.128Z,31.40
2022-12-18T06:25:27.908Z,33.57
2022-12-18T06:27:54.748Z,33.10
2022-12-18T06:30:21.756Z,33.30
2022-12-18T06:32:53.198Z,31.93
2022-12-18T06:35:23.919Z,28.10
2022-12-18T06:37:50.742Z,30.60
2022-12-18T06:40:17.672Z,33.93
2022-12-18T06:42:44.429Z,30.03
2022-12-18T06:45:12.317Z,29.70
2022-12-18T06:47:39.110Z,26.90
2022-12-18T06:50:06.566Z,33.67
2022-12-18T06:52:34.470Z,28.77
2022-12-18T06:55:01.426Z,32.13
2022-12-18T06:57:29.124Z,32.67
2022-12-18T06:59:55.856Z,28.77
2022-12-18T07:02:22.613Z,33.77
2022-12-18T07:04:49.399Z,34.57
2022-12-18T07:07:16.186Z,33.80
2022-12-18T07:09:42.946Z,32.73
2022-12-18T07:12:09.668Z,28.60
2022-12-18T07:14:36.415Z,32.80
2022-12-18T07:17:03.220Z,34.20
2022-12-18T07:19:30.617Z,38.07
2022-12-18T07:21:57.973Z,35.33
2022-12-18T07:24:24.697Z,33.40
2022-12-18T07:26:51.466Z,36.07
2022-12-18T07:29:18.265Z,38.73
2022-12-18T07:31:45.519Z,38.93
2022-12-18T07:34:16.199Z,40.97
2022-12-18T07:36:43.765Z,37.73
2022-12-18T07:39:12.313Z,37.67
2022-12-18T07:41:45.192Z,44.10
2022-12-18T07:44:13.681Z,34.83
2022-12-18T07:46:40.610Z,38.83
2022-12-18T07:49:07.686Z,36.53
2022-12-18T07:51:34.422Z,36.43
2022-12-18T07:54:01.153Z,31.87
2022-12-18T07:56:29.604Z,35.80
2022-12-18T07:58:57.549Z,34.13
2022-12-18T08:01:25.253Z,35.40
2022-12-18T08:03:52.651Z,33.60
2022-12-18T08:06:22.386Z,31.87
2022-12-18T08:08:55.422Z,31.90
2022-12-18T08:11:23.325Z,37.07
2022-12-18T08:13:50.073Z,34.90
2022-12-18T08:16:16.997Z,31.67
2022-12-18T08:18:43.804Z,36.00
2022-12-18T08:21:11.275Z,34.00
2022-12-18T08:23:42.734Z,34.37
2022-12-18T08:26:12.028Z,30.33
2022-12-18T08:28:39.332Z,31.13
2022-12-18T08:31:06.385Z,39.93
2022-12-18T08:33:34.382Z,38.27
2022-12-18T08:36:02.057Z,36.63
2022-12-18T08:38:29.398Z,36.03
2022-12-18T08:41:10.953Z,32.53
2022-12-18T08:43:56.374Z,33.53
2022-12-18T08:46:25.533Z,32.73
2022-12-18T08:48:54.054Z,35.43
2022-12-18T08:51:21.019Z,34.40
2022-12-18T08:53:48.294Z,38.47
2022-12-18T08:56:15.490Z,32.67
2022-12-18T08:58:42.706Z,34.27
2022-12-18T09:01:11.300Z,31.57
2022-12-18T09:03:38.799Z,32.17
2022-12-18T09:06:06.360Z,31.37
2022-12-18T09:08:35.894Z,32.30
2022-12-18T09:11:02.637Z,33.33
2022-12-18T09:13:29.755Z,32.80
2022-12-18T09:15:56.926Z,34.93
2022-12-18T09:18:25.266Z,32.27
2022-12-18T09:20:53.732Z,34.43
2022-12-18T09:23:21.495Z,33.10
2022-12-18T09:25:48.817Z,33.83
2022-12-18T09:28:18.202Z,30.57
2022-12-18T09:30:47.317Z,26.47
2022-12-18T09:33:14.721Z,32.43
2022-12-18T09:35:43.755Z,28.83
2022-12-18T09:38:14.513Z,28.63
2022-12-18T09:40:45.535Z,30.50
2022-12-18T09:43:21.581Z,29.67
2022-12-18T09:45:53.550Z,31.10
2022-12-18T09:48:26.197Z,30.17
2022-12-18T09:51:00.628Z,31.70
2022-12-18T09:53:31.134Z,27.90
2022-12-18T09:56:01.501Z,24.10
2022-12-18T09:58:34.299Z,28.63
2022-12-18T10:01:01.063Z,30.83
2022-12-18T10:03:28.213Z,28.17
2022-12-18T10:06:14.447Z,32.13
2022-12-18T10:08:58.799Z,36.83
2022-12-18T10:11:25.469Z,28.50
2022-12-18T10:14:07.759Z,27.60
2022-12-18T10:16:37.463Z,28.60
2022-12-18T10:19:38.303Z,25.80
2022-12-18T10:22:26.970Z,30.53
2022-12-18T10:25:02.995Z,26.30
2022-12-18T10:27:30.702Z,30.40
2022-12-18T10:29:58.355Z,31.17
2022-12-18T10:32:30.780Z,32.90
2022-12-18T10:35:02.000Z,38.58
2022-12-18T10:37:30.533Z,30.77
2022-12-18T10:40:21.541Z,33.67
2022-12-18T10:43:05.375Z,28.70
2022-12-18T10:48:01.429Z,31.77
2022-12-18T10:51:09.829Z,32.40
2022-12-18T10:53:28.332Z,26.17
2022-12-18T10:55:58.725Z,27.77
2022-12-18T10:58:30.154Z,27.27
2022-12-18T11:01:17.760Z,26.73
2022-12-18T11:03:47.731Z,29.57
2022-12-18T11:06:17.427Z,28.97
2022-12-18T11:08:57.720Z,27.42
2022-12-18T11:11:25.861Z,27.83
2022-12-18T11:14:13.556Z,27.00
2022-12-18T11:17:23.727Z,26.55
2022-12-18T11:19:40.861Z,26.85
2022-12-18T11:22:41.122Z,27.20
2022-12-18T11:25:36.008Z,23.40
2022-12-18T11:28:27.671Z,23.63
2022-12-18T11:31:18.284Z,27.00
2022-12-18T11:36:50.495Z,26.50
2022-12-18T11:39:31.480Z,20.73
2022-12-18T11:42:10.719Z,19.73
2022-12-18T11:45:09.521Z,20.10
2022-12-18T11:48:02.367Z,22.83
2022-12-18T11:50:40.374Z,19.38
2022-12-18T11:53:12.110Z,21.65
2022-12-18T11:55:53.453Z,21.75
2022-12-18T11:58:42.085Z,20.50
2022-12-18T12:01:17.834Z,20.38
2022-12-18T12:04:02.775Z,21.20
2022-12-18T12:06:53.254Z,23.33
2022-12-18T12:09:36.031Z,21.63
2022-12-18T12:12:25.942Z,19.60
2022-12-18T12:15:06.755Z,19.17
2022-12-18T12:17:45.255Z,20.52
2022-12-18T12:20:26.600Z,23.05
2022-12-18T12:23:39.521Z,18.13
2022-12-18T12:26:14.911Z,19.75
2022-12-18T12:29:01.237Z,19.35
2022-12-18T12:31:56.064Z,17.40
2022-12-18T12:35:07.714Z,20.92
2022-12-18T12:37:50.633Z,17.43
2022-12-18T12:40:50.162Z,16.88
2022-12-18T12:43:26.668Z,20.42
2022-12-18T12:46:15.361Z,16.75
2022-12-18T12:48:53.482Z,16.23
2022-12-18T12:51:27.057Z,17.60
2022-12-18T12:53:57.191Z,15.13
2022-12-18T12:56:28.700Z,19.88
2022-12-18T12:59:00.947Z,17.45
2022-12-18T13:01:46.741Z,16.70
2022-12-18T13:04:22.854Z,19.55
2022-12-18T13:07:01.161Z,16.83
2022-12-18T13:09:32.778Z,16.98
2022-12-18T13:12:29.765Z,16.63
2022-12-18T13:15:23.262Z,21.88
2022-12-18T13:17:50.649Z,15.60
2022-12-18T13:20:17.805Z,18.48
2022-12-18T13:22:47.815Z,15.35
2022-12-18T13:25:34.639Z,17.60
2022-12-18T13:28:13.513Z,18.42
2022-12-18T13:30:40.181Z,17.88
2022-12-18T13:33:15.998Z,18.40
2022-12-18T13:35:48.871Z,18.10
2022-12-18T13:38:37.271Z,15.75
2022-12-18T13:41:16.254Z,14.95
2022-12-18T13:44:00.448Z,15.98
2022-12-18T13:46:42.990Z,15.52
2022-12-18T13:49:23.748Z,17.37
2022-12-18T13:51:52.867Z,16.02
2022-12-18T13:54:22.074Z,16.65
2022-12-18T13:56:49.900Z,15.88
2022-12-18T13:59:24.856Z,16.73
2022-12-18T14:01:56.275Z,18.20
2022-12-18T14:04:35.991Z,15.20
2022-12-18T14:07:11.751Z,18.52
2022-12-18T14:09:47.151Z,18.67
2022-12-18T14:12:55.656Z,18.30
2022-12-18T14:15:34.646Z,16.55
2022-12-18T14:18:23.405Z,18.60
2022-12-18T14:20:53.400Z,18.40
2022-12-18T14:23:41.597Z,16.65
2022-12-18T14:26:30.670Z,21.20
2022-12-18T14:28:59.570Z,19.60
2022-12-18T14:31:29.087Z,17.45
2022-12-18T14:33:56.321Z,16.35
2022-12-18T14:36:25.928Z,20.20
2022-12-18T14:38:58.124Z,21.33
2022-12-18T14:41:26.354Z,20.83
2022-12-18T14:43:55.328Z,20.97
2022-12-18T14:46:37.800Z,21.73
2022-12-18T14:49:34.938Z,22.13
2022-12-18T14:52:07.231Z,21.60
2022-12-18T14:54:38.118Z,22.47
2022-12-18T14:57:25.776Z,25.03
2022-12-18T14:59:52.814Z,23.07
2022-12-18T15:02:25.846Z,23.50
2022-12-18T15:07:28.007Z,23.60
2022-12-18T15:10:03.903Z,26.60
2022-12-18T15:12:45.786Z,26.97
2022-12-18T15:15:34.140Z,33.57
2022-12-18T15:18:02.446Z,48.63
2022-12-18T15:20:33.791Z,33.10
2022-12-18T15:23:00.522Z,64.33
2022-12-18T15:25:38.759Z,80.43
2022-12-18T15:28:20.385Z,62.60
2022-12-18T15:31:04.825Z,34.40
2022-12-18T15:33:34.942Z,30.63
2022-12-18T15:36:10.143Z,29.93
2022-12-18T15:38:37.056Z,28.83
2022-12-18T15:41:04.330Z,33.57
2022-12-18T15:43:37.792Z,30.17
2022-12-18T15:46:16.930Z,30.87
2022-12-18T15:48:48.510Z,39.40
2022-12-18T15:51:21.456Z,38.03
2022-12-18T15:53:50.882Z,36.00
2022-12-18T15:56:36.775Z,35.90
2022-12-18T15:59:05.905Z,37.60
2022-12-18T16:01:32.902Z,39.13
2022-12-18T16:04:00.513Z,41.63
2022-12-18T16:06:30.508Z,44.83
2022-12-18T16:09:03.238Z,35.43
2022-12-18T16:11:44.006Z,39.57
2022-12-18T16:14:29.547Z,36.70
2022-12-18T16:17:00.920Z,40.00
2022-12-18T16:19:28.853Z,40.13
2022-12-18T16:21:57.809Z,42.67
2022-12-18T16:24:26.734Z,38.23
2022-12-18T16:26:54.501Z,38.37
2022-12-18T16:29:28.108Z,45.57
2022-12-18T16:31:56.234Z,45.90
2022-12-18T16:34:29.313Z,39.97
2022-12-18T16:37:05.518Z,39.87
2022-12-18T16:39:34.867Z,32.97
2022-12-18T16:42:06.006Z,43.80
2022-12-18T16:44:34.516Z,45.47
2022-12-18T16:47:02.931Z,43.13
2022-12-18T16:49:31.252Z,43.20
2022-12-18T16:51:58.126Z,41.63
2022-12-18T16:54:25.361Z,44.13
2022-12-18T16:56:52.606Z,48.83
2022-12-18T16:59:19.497Z,40.90
2022-12-18T17:01:47.631Z,38.63
2022-12-18T17:04:15.322Z,44.23
2022-12-18T17:06:44.896Z,37.00
2022-12-18T17:09:16.368Z,46.00
2022-12-18T17:11:43.802Z,38.60
2022-12-18T17:14:14.929Z,51.53
2022-12-18T17:16:42.116Z,39.87
2022-12-18T17:19:16.658Z,42.50
2022-12-18T17:21:45.665Z,41.40
2022-12-18T17:24:12.456Z,42.77
2022-12-18T17:26:39.342Z,45.07
2022-12-18T17:29:06.635Z,42.33
2022-12-18T17:31:34.265Z,46.93
2022-12-18T17:34:04.234Z,43.97
2022-12-18T17:36:32.251Z,45.23
2022-12-18T17:39:01.340Z,47.67
2022-12-18T17:41:29.637Z,44.47
2022-12-18T17:43:58.835Z,51.77
2022-12-18T17:46:27.353Z,68.03
2022-12-18T17:49:01.197Z,50.43
2022-12-18T17:51:28.622Z,45.07
2022-12-18T17:53:55.494Z,47.57
2022-12-18T17:56:24.584Z,49.17
2022-12-18T17:58:52.156Z,50.10
2022-12-18T18:01:21.661Z,50.13
2022-12-18T18:03:51.552Z,39.90
2022-12-18T18:06:20.922Z,52.78
2022-12-18T18:08:48.054Z,57.67
2022-12-18T18:11:35.510Z,53.27
2022-12-18T18:14:07.492Z,50.03
2022-12-18T18:16:46.038Z,45.47
2022-12-18T18:19:16.544Z,47.23
2022-12-18T18:21:45.641Z,48.20
2022-12-18T18:24:16.034Z,47.47
2022-12-18T18:26:43.036Z,47.70
2022-12-18T18:29:14.243Z,56.97
2022-12-18T18:31:41.911Z,53.63
2022-12-18T18:34:14.125Z,57.27
2022-12-18T18:36:40.890Z,53.28
2022-12-18T18:39:09.008Z,47.13
2022-12-18T18:41:37.217Z,53.90
2022-12-18T18:44:04.589Z,50.17
2022-12-18T18:46:31.412Z,52.93
2022-12-18T18:48:58.209Z,54.67
2022-12-18T18:51:26.188Z,48.13
2022-12-18T18:53:55.580Z,53.50
2022-12-18T18:59:11.316Z,57.17
2022-12-18T19:01:38.188Z,55.03
2022-12-18T19:04:05.140Z,50.77
2022-12-18T19:06:32.078Z,54.97
2022-12-18T19:09:04.259Z,52.07
2022-12-18T19:11:49.667Z,58.73
2022-12-18T19:14:17.966Z,50.53
2022-12-18T19:16:45.538Z,51.83
2022-12-18T19:19:13.346Z,56.67
2022-12-18T19:21:41.405Z,61.10
2022-12-18T19:24:09.887Z,59.37
2022-12-18T19:26:40.335Z,59.63
2022-12-18T19:29:08.980Z,63.90
2022-12-18T19:31:37.358Z,52.87
2022-12-18T19:34:08.865Z,65.27
2022-12-18T19:36:37.673Z,66.97
2022-12-18T19:39:13.572Z,59.03
2022-12-18T19:41:41.165Z,52.63
2022-12-18T19:44:11.803Z,56.70
2022-12-18T19:46:41.638Z,52.50
2022-12-18T19:49:10.760Z,57.80
2022-12-18T19:51:38.331Z,56.30
2022-12-18T19:54:05.364Z,48.67
2022-12-18T19:56:34.275Z,63.27
2022-12-18T19:59:02.669Z,63.87
2022-12-18T20:01:30.787Z,64.93
2022-12-18T20:03:58.401Z,63.17
2022-12-18T20:06:37.976Z,63.70
2022-12-18T20:09:06.629Z,59.23
2022-12-18T20:11:38.857Z,64.17
2022-12-18T20:14:10.119Z,60.97
2022-12-18T20:16:36.984Z,63.07
2022-12-18T20:19:04.272Z,60.33
2022-12-18T20:21:31.613Z,74.37
2022-12-18T20:23:59.936Z,65.80
2022-12-18T20:26:26.819Z,63.43
2022-12-18T20:28:54.771Z,66.50
2022-12-18T20:31:22.488Z,62.13
2022-12-18T20:33:50.944Z,68.50
2022-12-18T20:36:22.480Z,62.23
2022-12-18T20:38:55.295Z,66.47
2022-12-18T20:41:24.259Z,62.63
2022-12-18T20:43:50.999Z,65.23
2022-12-18T20:46:18.004Z,59.50
2022-12-18T20:48:45.096Z,62.27
2022-12-18T20:51:15.237Z,64.77
2022-12-18T20:53:42.714Z,68.80
2022-12-18T20:56:21.297Z,66.77
2022-12-18T20:58:49.712Z,56.37
2022-12-18T21:01:19.273Z,63.63
2022-12-18T21:03:47.112Z,66.43
2022-12-18T21:06:16.020Z,56.10
2022-12-18T21:08:43.175Z,60.33
2022-12-18T21:11:32.738Z,66.80
2022-12-18T21:14:00.081Z,57.07
2022-12-18T21:16:26.958Z,55.30
2022-12-18T21:18:54.526Z,57.40
2022-12-18T21:21:26.559Z,61.13
2022-12-18T21:23:54.519Z,63.87
2022-12-18T21:26:24.790Z,58.73
2022-12-18T21:28:56.630Z,66.90
2022-12-18T21:31:25.428Z,50.87
2022-12-18T21:33:53.139Z,58.30
2022-12-18T21:36:30.211Z,50.00
2022-12-18T21:38:57.685Z,57.37
2022-12-18T21:41:44.823Z,61.97
2022-12-18T21:44:14.227Z,57.50
2022-12-18T21:46:44.137Z,67.27
2022-12-18T21:49:14.528Z,55.10
2022-12-18T21:51:41.453Z,63.63
2022-12-18T21:54:08.207Z,54.40
2022-12-18T21:56:53.088Z,62.47
2022-12-18T21:59:25.483Z,57.83
2022-12-18T22:01:53.919Z,56.53
2022-12-18T22:04:21.887Z,62.00
2022-12-18T22:06:50.068Z,59.53
2022-12-18T22:09:19.271Z,56.87
2022-12-18T22:11:46.683Z,59.53
2022-12-18T22:14:15.241Z,52.87
2022-12-18T22:16:43.144Z,56.53
2022-12-18T22:19:11.905Z,52.63
2022-12-18T22:21:41.170Z,50.17
2022-12-18T22:24:15.408Z,53.87
2022-12-18T22:26:43.100Z,55.43
2022-12-18T22:29:39.721Z,60.70
2022-12-18T22:32:09.101Z,52.70
2022-12-18T22:34:38.607Z,49.37
2022-12-18T22:37:05.949Z,55.30
2022-12-18T22:39:32.751Z,45.17
2022-12-18T22:41:59.597Z,45.87
2022-12-18T22:44:26.499Z,54.30
2022-12-18T22:47:05.710Z,52.43
2022-12-18T22:49:34.854Z,49.60
2022-12-18T22:52:03.361Z,49.43
2022-12-18T22:54:30.132Z,50.80
2022-12-18T22:56:57.251Z,54.70
2022-12-18T22:59:24.477Z,53.37
2022-12-18T23:01:54.189Z,48.57
2022-12-18T23:04:35.873Z,52.27
2022-12-18T23:07:05.323Z,48.87
2022-12-18T23:09:32.483Z,49.47
2022-12-18T23:11:59.290Z,51.23
2022-12-18T23:14:26.283Z,54.07
2022-12-18T23:16:53.352Z,46.00
2022-12-18T23:19:20.926Z,51.03
2022-12-18T23:21:50.447Z,51.23
2022-12-18T23:24:17.224Z,50.97
2022-12-18T23:26:44.046Z,53.97
2022-12-18T23:29:10.782Z,48.50
2022-12-18T23:31:39.461Z,52.47
2022-12-18T23:34:07.008Z,51.17
2022-12-18T23:36:40.295Z,58.17
2022-12-18T23:39:24.344Z,56.23
2022-12-18T23:44:26.532Z,49.13
2022-12-18T23:46:53.477Z,52.83
2022-12-18T23:49:20.635Z,48.43
2022-12-18T23:51:47.406Z,52.83
2022-12-18T23:54:14.434Z,48.90
2022-12-18T23:56:41.239Z,48.87
2022-12-18T23:59:08.004Z,51.80
